sensor_id;sensor_type;location;lat;lon;timestamp;pressure;altitude;pressure_sealevel;temperature;humidity
69796;BME280;57073;45.650;9.612;2022-08-21T00:00:47;63708.63;;;-147.61;100.00
69796;BME280;57073;45.650;9.612;2022-08-21T00:02:54;63708.63;;;-147.61;100.00
69796;BME280;57073;45.650;9.612;2022-08-21T00:04:54;63708.63;;;-147.61;100.00
69796;BME280;57073;45.650;9.612;2022-08-21T00:06:55;63708.63;;;-147.61;100.00
69796;BME280;57073;45.650;9.612;2022-08-21T00:08:56;63708.63;;;-147.61;100.00
69796;BME280;57073;45.650;9.612;2022-08-21T00:10:56;63708.63;;;-147.61;100.00
69796;BME280;57073;45.650;9.612;2022-08-21T00:12:57;63708.63;;;-147.61;100.00
69796;BME280;57073;45.650;9.612;2022-08-21T00:14:58;63708.63;;;-147.61;100.00
69796;BME280;57073;45.650;9.612;2022-08-21T00:16:58;63708.63;;;-147.61;100.00
69796;BME280;57073;45.650;9.612;2022-08-21T00:18:59;63708.63;;;-147.61;100.00
69796;BME280;57073;45.650;9.612;2022-08-21T00:20:59;63708.63;;;-147.61;100.00
69796;BME280;57073;45.650;9.612;2022-08-21T00:23:00;63708.63;;;-147.61;100.00
69796;BME280;57073;45.650;9.612;2022-08-21T00:25:01;63708.63;;;-147.61;100.00
69796;BME280;57073;45.650;9.612;2022-08-21T00:27:03;63708.63;;;-147.61;100.00
69796;BME280;57073;45.650;9.612;2022-08-21T00:29:03;63708.63;;;-147.61;100.00
69796;BME280;57073;45.650;9.612;2022-08-21T00:31:04;63708.63;;;-147.61;100.00
69796;BME280;57073;45.650;9.612;2022-08-21T00:33:05;63708.63;;;-147.61;100.00
69796;BME280;57073;45.650;9.612;2022-08-21T00:35:10;63708.63;;;-147.61;100.00
69796;BME280;57073;45.650;9.612;2022-08-21T00:37:11;63708.63;;;-147.61;100.00
69796;BME280;57073;45.650;9.612;2022-08-21T00:39:12;63708.63;;;-147.61;100.00
69796;BME280;57073;45.650;9.612;2022-08-21T00:41:12;63708.63;;;-147.61;100.00
69796;BME280;57073;45.650;9.612;2022-08-21T00:43:16;63708.63;;;-147.61;100.00
69796;BME280;57073;45.650;9.612;2022-08-21T00:45:16;63708.63;;;-147.61;100.00
69796;BME280;57073;45.650;9.612;2022-08-21T00:47:18;63708.63;;;-147.61;100.00
69796;BME280;57073;45.650;9.612;2022-08-21T00:49:19;63708.63;;;-147.61;100.00
69796;BME280;57073;45.650;9.612;2022-08-21T00:51:24;63708.63;;;-147.61;100.00
69796;BME280;57073;45.650;9.612;2022-08-21T00:53:27;63708.63;;;-147.61;100.00
69796;BME280;57073;45.650;9.612;2022-08-21T00:55:28;63708.63;;;-147.61;100.00
69796;BME280;57073;45.650;9.612;2022-08-21T00:57:35;63708.63;;;-147.61;100.00
69796;BME280;57073;45.650;9.612;2022-08-21T00:59:40;63708.63;;;-147.61;100.00
69796;BME280;57073;45.650;9.612;2022-08-21T01:01:42;63708.63;;;-147.61;100.00
69796;BME280;57073;45.650;9.612;2022-08-21T01:03:42;63708.63;;;-147.61;100.00
69796;BME280;57073;45.650;9.612;2022-08-21T01:05:44;63708.63;;;-147.61;100.00
69796;BME280;57073;45.650;9.612;2022-08-21T01:07:45;63708.63;;;-147.61;100.00
69796;BME280;57073;45.650;9.612;2022-08-21T01:09:47;63708.63;;;-147.61;100.00
69796;BME280;57073;45.650;9.612;2022-08-21T01:11:47;63708.63;;;-147.61;100.00
69796;BME280;57073;45.650;9.612;2022-08-21T01:13:49;63708.63;;;-147.61;100.00
69796;BME280;57073;45.650;9.612;2022-08-21T01:15:50;63708.63;;;-147.61;100.00
69796;BME280;57073;45.650;9.612;2022-08-21T01:17:53;63708.63;;;-147.61;100.00
69796;BME280;57073;45.650;9.612;2022-08-21T01:19:57;63708.63;;;-147.61;100.00
69796;BME280;57073;45.650;9.612;2022-08-21T01:21:58;63708.63;;;-147.61;100.00
69796;BME280;57073;45.650;9.612;2022-08-21T01:24:00;63708.63;;;-147.61;100.00
69796;BME280;57073;45.650;9.612;2022-08-21T01:26:01;63708.63;;;-147.61;100.00
69796;BME280;57073;45.650;9.612;2022-08-21T01:28:08;63708.63;;;-147.61;100.00
69796;BME280;57073;45.650;9.612;2022-08-21T01:30:21;63708.63;;;-147.61;100.00
69796;BME280;57073;45.650;9.612;2022-08-21T01:32:23;63708.63;;;-147.61;100.00
69796;BME280;57073;45.650;9.612;2022-08-21T01:34:24;63708.63;;;-147.61;100.00
69796;BME280;57073;45.650;9.612;2022-08-21T01:36:25;63708.63;;;-147.61;100.00
69796;BME280;57073;45.650;9.612;2022-08-21T01:38:26;63708.63;;;-147.61;100.00
69796;BME280;57073;45.650;9.612;2022-08-21T01:40:27;63708.63;;;-147.61;100.00
69796;BME280;57073;45.650;9.612;2022-08-21T01:42:27;63708.63;;;-147.61;100.00
69796;BME280;57073;45.650;9.612;2022-08-21T01:44:28;63708.63;;;-147.61;100.00
69796;BME280;57073;45.650;9.612;2022-08-21T01:46:28;63708.63;;;-147.61;100.00
69796;BME280;57073;45.650;9.612;2022-08-21T01:48:29;63708.63;;;-147.61;100.00
69796;BME280;57073;45.650;9.612;2022-08-21T01:50:30;63708.63;;;-147.61;100.00
69796;BME280;57073;45.650;9.612;2022-08-21T01:52:31;63708.63;;;-147.61;100.00
69796;BME280;57073;45.650;9.612;2022-08-21T01:54:31;63708.63;;;-147.61;100.00
69796;BME280;57073;45.650;9.612;2022-08-21T01:56:40;63708.63;;;-147.61;100.00
69796;BME280;57073;45.650;9.612;2022-08-21T01:58:45;63708.63;;;-147.61;100.00
69796;BME280;57073;45.650;9.612;2022-08-21T02:00:46;63708.63;;;-147.61;100.00
69796;BME280;57073;45.650;9.612;2022-08-21T02:02:46;63708.63;;;-147.61;100.00
69796;BME280;57073;45.650;9.612;2022-08-21T02:04:46;63708.63;;;-147.61;100.00
69796;BME280;57073;45.650;9.612;2022-08-21T02:06:47;63708.63;;;-147.61;100.00
69796;BME280;57073;45.650;9.612;2022-08-21T02:08:48;63708.63;;;-147.61;100.00
69796;BME280;57073;45.650;9.612;2022-08-21T02:10:51;63708.63;;;-147.61;100.00
69796;BME280;57073;45.650;9.612;2022-08-21T02:12:53;63708.63;;;-147.61;100.00
69796;BME280;57073;45.650;9.612;2022-08-21T02:14:53;63708.63;;;-147.61;100.00
69796;BME280;57073;45.650;9.612;2022-08-21T02:16:54;63708.63;;;-147.61;100.00
69796;BME280;57073;45.650;9.612;2022-08-21T02:18:54;63708.63;;;-147.61;100.00
69796;BME280;57073;45.650;9.612;2022-08-21T02:20:55;63708.63;;;-147.61;100.00
69796;BME280;57073;45.650;9.612;2022-08-21T02:22:55;63708.63;;;-147.61;100.00
69796;BME280;57073;45.650;9.612;2022-08-21T02:24:56;63708.63;;;-147.61;100.00
69796;BME280;57073;45.650;9.612;2022-08-21T02:26:56;63708.63;;;-147.61;100.00
69796;BME280;57073;45.650;9.612;2022-08-21T02:28:56;63708.63;;;-147.61;100.00
69796;BME280;57073;45.650;9.612;2022-08-21T02:30:57;63708.63;;;-147.61;100.00
69796;BME280;57073;45.650;9.612;2022-08-21T02:32:58;63708.63;;;-147.61;100.00
69796;BME280;57073;45.650;9.612;2022-08-21T02:34:58;63708.63;;;-147.61;100.00
69796;BME280;57073;45.650;9.612;2022-08-21T02:36:58;63708.63;;;-147.61;100.00
69796;BME280;57073;45.650;9.612;2022-08-21T02:38:59;63708.63;;;-147.61;100.00
69796;BME280;57073;45.650;9.612;2022-08-21T02:41:00;63708.63;;;-147.61;100.00
69796;BME280;57073;45.650;9.612;2022-08-21T02:43:02;63708.63;;;-147.61;100.00
69796;BME280;57073;45.650;9.612;2022-08-21T02:45:03;63708.63;;;-147.61;100.00
69796;BME280;57073;45.650;9.612;2022-08-21T02:47:04;63708.63;;;-147.61;100.00
69796;BME280;57073;45.650;9.612;2022-08-21T02:49:04;63708.63;;;-147.61;100.00
69796;BME280;57073;45.650;9.612;2022-08-21T02:51:10;63708.63;;;-147.61;100.00
69796;BME280;57073;45.650;9.612;2022-08-21T02:53:12;63708.63;;;-147.61;100.00
69796;BME280;57073;45.650;9.612;2022-08-21T02:55:16;98819.44;;;26.89;42.95
69796;BME280;57073;45.650;9.612;2022-08-21T02:57:16;98821.53;;;22.59;44.23
69796;BME280;57073;45.650;9.612;2022-08-21T02:59:17;98818.00;;;22.59;44.48
69796;BME280;57073;45.650;9.612;2022-08-21T03:01:18;98791.97;;;22.48;44.36
69796;BME280;57073;45.650;9.612;2022-08-21T03:03:19;98822.81;;;22.62;44.49
69796;BME280;57073;45.650;9.612;2022-08-21T03:05:22;98786.00;;;22.46;43.79
69796;BME280;57073;45.650;9.612;2022-08-21T03:07:23;98813.63;;;22.58;44.26
69796;BME280;57073;45.650;9.612;2022-08-21T03:09:23;98805.03;;;22.51;44.06
69796;BME280;57073;45.650;9.612;2022-08-21T03:11:24;98806.66;;;22.52;44.29
69796;BME280;57073;45.650;9.612;2022-08-21T03:13:26;98804.16;;;22.42;44.23
69796;BME280;57073;45.650;9.612;2022-08-21T03:15:27;98806.59;;;22.43;43.89
69796;BME280;57073;45.650;9.612;2022-08-21T03:17:28;98800.72;;;22.36;44.30
69796;BME280;57073;45.650;9.612;2022-08-21T03:19:28;98811.75;;;22.31;44.20
69796;BME280;57073;45.650;9.612;2022-08-21T03:21:29;98820.06;;;22.39;44.40
69796;BME280;57073;45.650;9.612;2022-08-21T03:23:29;98811.09;;;22.48;44.48
69796;BME280;57073;45.650;9.612;2022-08-21T03:25:32;98805.44;;;22.44;44.66
69796;BME280;57073;45.650;9.612;2022-08-21T03:27:33;98804.03;;;22.47;44.56
69796;BME280;57073;45.650;9.612;2022-08-21T03:29:34;98794.25;;;22.32;43.91
69796;BME280;57073;45.650;9.612;2022-08-21T03:31:34;98797.06;;;22.40;44.58
69796;BME280;57073;45.650;9.612;2022-08-21T03:33:35;98805.88;;;22.37;44.25
69796;BME280;57073;45.650;9.612;2022-08-21T03:35:35;98806.78;;;22.33;44.17
69796;BME280;57073;45.650;9.612;2022-08-21T03:37:36;98795.44;;;22.26;44.24
69796;BME280;57073;45.650;9.612;2022-08-21T03:39:36;98795.16;;;22.27;44.01
69796;BME280;57073;45.650;9.612;2022-08-21T03:41:36;98811.84;;;22.26;44.08
69796;BME280;57073;45.650;9.612;2022-08-21T03:43:37;98801.22;;;22.24;44.62
69796;BME280;57073;45.650;9.612;2022-08-21T03:45:38;98812.13;;;22.24;44.50
69796;BME280;57073;45.650;9.612;2022-08-21T03:47:59;98800.63;;;22.27;44.32
69796;BME280;57073;45.650;9.612;2022-08-21T03:50:01;98810.25;;;22.25;44.48
69796;BME280;57073;45.650;9.612;2022-08-21T03:52:03;98805.81;;;22.29;43.90
69796;BME280;57073;45.650;9.612;2022-08-21T03:54:03;98776.94;;;22.09;44.89
69796;BME280;57073;45.650;9.612;2022-08-21T03:56:04;98791.19;;;22.33;44.99
69796;BME280;57073;45.650;9.612;2022-08-21T03:58:05;98808.13;;;22.35;43.87
69796;BME280;57073;45.650;9.612;2022-08-21T04:00:06;98805.59;;;22.39;44.15
69796;BME280;57073;45.650;9.612;2022-08-21T04:02:10;98810.22;;;22.38;44.83
69796;BME280;57073;45.650;9.612;2022-08-21T04:04:12;98790.00;;;22.12;43.87
69796;BME280;57073;45.650;9.612;2022-08-21T04:06:13;98797.19;;;22.21;43.91
69796;BME280;57073;45.650;9.612;2022-08-21T04:08:14;98796.16;;;22.31;43.98
69796;BME280;57073;45.650;9.612;2022-08-21T04:10:15;98801.22;;;22.38;43.68
69796;BME280;57073;45.650;9.612;2022-08-21T04:12:16;98799.47;;;22.42;44.24
69796;BME280;57073;45.650;9.612;2022-08-21T04:14:16;98793.91;;;22.47;44.07
69796;BME280;57073;45.650;9.612;2022-08-21T04:16:17;98796.75;;;22.42;43.67
69796;BME280;57073;45.650;9.612;2022-08-21T04:18:18;98802.09;;;22.47;43.74
69796;BME280;57073;45.650;9.612;2022-08-21T04:20:19;98804.03;;;22.47;44.00
69796;BME280;57073;45.650;9.612;2022-08-21T04:22:21;98812.25;;;22.47;44.96
69796;BME280;57073;45.650;9.612;2022-08-21T04:24:22;98806.13;;;22.50;45.72
69796;BME280;57073;45.650;9.612;2022-08-21T04:26:23;98807.28;;;22.49;46.41
69796;BME280;57073;45.650;9.612;2022-08-21T04:28:25;98807.97;;;22.40;44.70
69796;BME280;57073;45.650;9.612;2022-08-21T04:30:26;98795.56;;;22.34;44.04
69796;BME280;57073;45.650;9.612;2022-08-21T04:32:27;98806.88;;;22.42;43.58
69796;BME280;57073;45.650;9.612;2022-08-21T04:34:28;98806.19;;;22.36;44.30
69796;BME280;57073;45.650;9.612;2022-08-21T04:36:28;98805.44;;;22.44;44.40
69796;BME280;57073;45.650;9.612;2022-08-21T04:38:28;98806.28;;;22.45;44.90
69796;BME280;57073;45.650;9.612;2022-08-21T04:40:31;98798.97;;;22.40;44.59
69796;BME280;57073;45.650;9.612;2022-08-21T04:42:31;98800.41;;;22.37;45.53
69796;BME280;57073;45.650;9.612;2022-08-21T04:44:33;98809.50;;;22.47;44.56
69796;BME280;57073;45.650;9.612;2022-08-21T04:46:33;98795.56;;;22.34;45.38
69796;BME280;57073;45.650;9.612;2022-08-21T04:48:33;98791.34;;;22.28;44.76
69796;BME280;57073;45.650;9.612;2022-08-21T04:50:47;98804.84;;;22.33;45.34
69796;BME280;57073;45.650;9.612;2022-08-21T04:52:49;98809.53;;;22.33;45.76
69796;BME280;57073;45.650;9.612;2022-08-21T04:54:50;98822.28;;;22.37;45.75
69796;BME280;57073;45.650;9.612;2022-08-21T04:57:00;98829.66;;;22.37;46.44
69796;BME280;57073;45.650;9.612;2022-08-21T04:59:06;98829.66;;;22.37;46.71
69796;BME280;57073;45.650;9.612;2022-08-21T05:01:15;98826.72;;;22.47;46.52
69796;BME280;57073;45.650;9.612;2022-08-21T05:03:18;98840.09;;;22.49;46.62
69796;BME280;57073;45.650;9.612;2022-08-21T05:05:18;98833.47;;;22.50;47.32
69796;BME280;57073;45.650;9.612;2022-08-21T05:07:22;98817.81;;;22.42;45.63
69796;BME280;57073;45.650;9.612;2022-08-21T05:09:24;98831.06;;;22.48;46.39
69796;BME280;57073;45.650;9.612;2022-08-21T05:11:25;98829.44;;;22.47;46.37
69796;BME280;57073;45.650;9.612;2022-08-21T05:13:26;98823.88;;;22.52;45.44
69796;BME280;57073;45.650;9.612;2022-08-21T05:15:26;98838.84;;;22.55;45.07
69796;BME280;57073;45.650;9.612;2022-08-21T05:17:27;98833.69;;;22.53;45.40
69796;BME280;57073;45.650;9.612;2022-08-21T05:19:27;98832.56;;;22.54;45.66
69796;BME280;57073;45.650;9.612;2022-08-21T05:21:27;98836.59;;;22.57;45.72
69796;BME280;57073;45.650;9.612;2022-08-21T05:23:28;98834.41;;;22.59;45.71
69796;BME280;57073;45.650;9.612;2022-08-21T05:25:28;98834.41;;;22.59;45.10
69796;BME280;57073;45.650;9.612;2022-08-21T05:27:29;98840.06;;;22.63;44.97
69796;BME280;57073;45.650;9.612;2022-08-21T05:29:29;98834.41;;;22.59;45.35
69796;BME280;57073;45.650;9.612;2022-08-21T05:31:31;98838.63;;;22.65;45.45
69796;BME280;57073;45.650;9.612;2022-08-21T05:33:31;98832.47;;;22.59;44.48
69796;BME280;57073;45.650;9.612;2022-08-21T05:35:32;98839.91;;;22.68;44.33
69796;BME280;57073;45.650;9.612;2022-08-21T05:37:34;98841.06;;;22.67;44.34
69796;BME280;57073;45.650;9.612;2022-08-21T05:39:34;98837.00;;;22.64;43.94
69796;BME280;57073;45.650;9.612;2022-08-21T05:41:34;98850.84;;;22.68;44.21
69796;BME280;57073;45.650;9.612;2022-08-21T05:43:35;98846.59;;;22.75;44.46
69796;BME280;57073;45.650;9.612;2022-08-21T05:45:36;98847.00;;;22.83;44.67
69796;BME280;57073;45.650;9.612;2022-08-21T05:47:36;98855.56;;;22.90;44.45
69796;BME280;57073;45.650;9.612;2022-08-21T05:49:37;98852.69;;;22.95;44.25
69796;BME280;57073;45.650;9.612;2022-08-21T05:51:40;98858.53;;;23.02;44.46
69796;BME280;57073;45.650;9.612;2022-08-21T05:53:42;98862.00;;;23.08;43.25
69796;BME280;57073;45.650;9.612;2022-08-21T05:55:44;98862.00;;;23.08;43.25
69796;BME280;57073;45.650;9.612;2022-08-21T05:57:44;98865.50;;;23.45;42.77
69796;BME280;57073;45.650;9.612;2022-08-21T05:59:45;98867.44;;;23.53;42.48
69796;BME280;57073;45.650;9.612;2022-08-21T06:01:45;98854.72;;;23.48;41.47
69796;BME280;57073;45.650;9.612;2022-08-21T06:03:46;63708.63;;;-147.61;100.00
69796;BME280;57073;45.650;9.612;2022-08-21T06:05:46;63708.63;;;-147.61;100.00
69796;BME280;57073;45.650;9.612;2022-08-21T06:07:47;63708.63;;;-147.61;100.00
69796;BME280;57073;45.650;9.612;2022-08-21T06:09:47;63708.63;;;-147.61;100.00
69796;BME280;57073;45.650;9.612;2022-08-21T06:11:48;63708.63;;;-147.61;100.00
69796;BME280;57073;45.650;9.612;2022-08-21T06:13:49;63708.63;;;-147.61;100.00
69796;BME280;57073;45.650;9.612;2022-08-21T06:15:49;63708.63;;;-147.61;100.00
69796;BME280;57073;45.650;9.612;2022-08-21T06:17:50;63708.63;;;-147.61;100.00
69796;BME280;57073;45.650;9.612;2022-08-21T06:19:51;63708.63;;;-147.61;100.00
69796;BME280;57073;45.650;9.612;2022-08-21T06:21:52;63708.63;;;-147.61;100.00
69796;BME280;57073;45.650;9.612;2022-08-21T06:23:53;63708.63;;;-147.61;100.00
69796;BME280;57073;45.650;9.612;2022-08-21T06:25:53;63708.63;;;-147.61;100.00
69796;BME280;57073;45.650;9.612;2022-08-21T06:28:09;63708.63;;;-147.61;100.00
69796;BME280;57073;45.650;9.612;2022-08-21T06:30:10;63708.63;;;-147.61;100.00
69796;BME280;57073;45.650;9.612;2022-08-21T06:32:12;63708.63;;;-147.61;100.00
69796;BME280;57073;45.650;9.612;2022-08-21T06:34:13;63708.63;;;-147.61;100.00
69796;BME280;57073;45.650;9.612;2022-08-21T06:36:14;63708.63;;;-147.61;100.00
69796;BME280;57073;45.650;9.612;2022-08-21T06:38:14;63708.63;;;-147.61;100.00
69796;BME280;57073;45.650;9.612;2022-08-21T06:40:15;63708.63;;;-147.61;100.00
69796;BME280;57073;45.650;9.612;2022-08-21T06:42:16;63708.63;;;-147.61;100.00
69796;BME280;57073;45.650;9.612;2022-08-21T06:44:16;63708.63;;;-147.61;100.00
69796;BME280;57073;45.650;9.612;2022-08-21T06:46:17;63708.63;;;-147.61;100.00
69796;BME280;57073;45.650;9.612;2022-08-21T06:48:18;63708.63;;;-147.61;100.00
69796;BME280;57073;45.650;9.612;2022-08-21T06:50:18;63708.63;;;-147.61;100.00
69796;BME280;57073;45.650;9.612;2022-08-21T06:52:19;63708.63;;;-147.61;100.00
69796;BME280;57073;45.650;9.612;2022-08-21T06:54:20;63708.63;;;-147.61;100.00
69796;BME280;57073;45.650;9.612;2022-08-21T06:56:20;63708.63;;;-147.61;100.00
69796;BME280;57073;45.650;9.612;2022-08-21T06:58:21;63708.63;;;-147.61;100.00
69796;BME280;57073;45.650;9.612;2022-08-21T07:00:21;63708.63;;;-147.61;100.00
69796;BME280;57073;45.650;9.612;2022-08-21T07:02:22;63708.63;;;-147.61;100.00
69796;BME280;57073;45.650;9.612;2022-08-21T07:04:22;63708.63;;;-147.61;100.00
69796;BME280;57073;45.650;9.612;2022-08-21T07:06:23;63708.63;;;-147.61;100.00
69796;BME280;57073;45.650;9.612;2022-08-21T07:08:26;63708.63;;;-147.61;100.00
69796;BME280;57073;45.650;9.612;2022-08-21T07:10:27;63708.63;;;-147.61;100.00
69796;BME280;57073;45.650;9.612;2022-08-21T07:12:27;63708.63;;;-147.61;100.00
69796;BME280;57073;45.650;9.612;2022-08-21T07:14:28;63708.63;;;-147.61;100.00
69796;BME280;57073;45.650;9.612;2022-08-21T07:16:28;63708.63;;;-147.61;100.00
69796;BME280;57073;45.650;9.612;2022-08-21T07:18:29;63708.63;;;-147.61;100.00
69796;BME280;57073;45.650;9.612;2022-08-21T07:20:30;63708.63;;;-147.61;100.00
69796;BME280;57073;45.650;9.612;2022-08-21T07:22:31;63708.63;;;-147.61;100.00
69796;BME280;57073;45.650;9.612;2022-08-21T07:24:32;63708.63;;;-147.61;100.00
69796;BME280;57073;45.650;9.612;2022-08-21T07:26:32;63708.63;;;-147.61;100.00
69796;BME280;57073;45.650;9.612;2022-08-21T07:28:33;63708.63;;;-147.61;100.00
69796;BME280;57073;45.650;9.612;2022-08-21T07:30:34;63708.63;;;-147.61;100.00
69796;BME280;57073;45.650;9.612;2022-08-21T07:32:34;63708.63;;;-147.61;100.00
69796;BME280;57073;45.650;9.612;2022-08-21T07:34:35;63708.63;;;-147.61;100.00
69796;BME280;57073;45.650;9.612;2022-08-21T07:36:35;63708.63;;;-147.61;100.00
69796;BME280;57073;45.650;9.612;2022-08-21T07:38:35;63708.63;;;-147.61;100.00
69796;BME280;57073;45.650;9.612;2022-08-21T07:40:36;63708.63;;;-147.61;100.00
69796;BME280;57073;45.650;9.612;2022-08-21T07:42:41;63708.63;;;-147.61;100.00
69796;BME280;57073;45.650;9.612;2022-08-21T07:44:42;63708.63;;;-147.61;100.00
69796;BME280;57073;45.650;9.612;2022-08-21T07:46:43;63708.63;;;-147.61;100.00
69796;BME280;57073;45.650;9.612;2022-08-21T07:48:43;63708.63;;;-147.61;100.00
69796;BME280;57073;45.650;9.612;2022-08-21T07:50:44;63708.63;;;-147.61;100.00
69796;BME280;57073;45.650;9.612;2022-08-21T07:52:44;63708.63;;;-147.61;100.00
69796;BME280;57073;45.650;9.612;2022-08-21T07:54:45;63708.63;;;-147.61;100.00
69796;BME280;57073;45.650;9.612;2022-08-21T07:56:45;63708.63;;;-147.61;100.00
69796;BME280;57073;45.650;9.612;2022-08-21T07:58:46;63708.63;;;-147.61;100.00
69796;BME280;57073;45.650;9.612;2022-08-21T08:00:47;63708.63;;;-147.61;100.00
69796;BME280;57073;45.650;9.612;2022-08-21T08:02:49;63708.63;;;-147.61;100.00
69796;BME280;57073;45.650;9.612;2022-08-21T08:04:50;63708.63;;;-147.61;100.00
69796;BME280;57073;45.650;9.612;2022-08-21T08:06:51;63708.63;;;-147.61;100.00
69796;BME280;57073;45.650;9.612;2022-08-21T08:08:51;63708.63;;;-147.61;100.00
69796;BME280;57073;45.650;9.612;2022-08-21T08:10:53;63708.63;;;-147.61;100.00
69796;BME280;57073;45.650;9.612;2022-08-21T08:12:56;63708.63;;;-147.61;100.00
69796;BME280;57073;45.650;9.612;2022-08-21T08:14:57;63708.63;;;-147.61;100.00
69796;BME280;57073;45.650;9.612;2022-08-21T08:16:58;63708.63;;;-147.61;100.00
69796;BME280;57073;45.650;9.612;2022-08-21T08:18:58;63708.63;;;-147.61;100.00
69796;BME280;57073;45.650;9.612;2022-08-21T08:20:59;63708.63;;;-147.61;100.00
69796;BME280;57073;45.650;9.612;2022-08-21T08:22:59;63708.63;;;-147.61;100.00
69796;BME280;57073;45.650;9.612;2022-08-21T08:24:59;63708.63;;;-147.61;100.00
69796;BME280;57073;45.650;9.612;2022-08-21T08:27:00;63708.63;;;-147.61;100.00
69796;BME280;57073;45.650;9.612;2022-08-21T08:29:00;63708.63;;;-147.61;100.00
69796;BME280;57073;45.650;9.612;2022-08-21T08:31:01;63708.63;;;-147.61;100.00
69796;BME280;57073;45.650;9.612;2022-08-21T08:33:02;63708.63;;;-147.61;100.00
69796;BME280;57073;45.650;9.612;2022-08-21T08:35:03;63708.63;;;-147.61;100.00
69796;BME280;57073;45.650;9.612;2022-08-21T08:37:06;63708.63;;;-147.61;100.00
69796;BME280;57073;45.650;9.612;2022-08-21T08:39:07;63708.63;;;-147.61;100.00
69796;BME280;57073;45.650;9.612;2022-08-21T08:41:13;63708.63;;;-147.61;100.00
69796;BME280;57073;45.650;9.612;2022-08-21T08:43:14;63708.63;;;-147.61;100.00
69796;BME280;57073;45.650;9.612;2022-08-21T08:45:18;63708.63;;;-147.61;100.00
69796;BME280;57073;45.650;9.612;2022-08-21T08:47:19;63708.63;;;-147.61;100.00
69796;BME280;57073;45.650;9.612;2022-08-21T08:49:26;63708.63;;;-147.61;100.00
69796;BME280;57073;45.650;9.612;2022-08-21T08:53:59;63708.63;;;-147.61;100.00
69796;BME280;57073;45.650;9.612;2022-08-21T08:56:03;63708.63;;;-147.61;100.00
69796;BME280;57073;45.650;9.612;2022-08-21T08:58:07;63708.63;;;-147.61;100.00
69796;BME280;57073;45.650;9.612;2022-08-21T09:00:12;63708.63;;;-147.61;100.00
69796;BME280;57073;45.650;9.612;2022-08-21T09:02:15;63708.63;;;-147.61;100.00
69796;BME280;57073;45.650;9.612;2022-08-21T09:04:21;63708.63;;;-147.61;100.00
69796;BME280;57073;45.650;9.612;2022-08-21T09:06:33;63708.63;;;-147.61;100.00
69796;BME280;57073;45.650;9.612;2022-08-21T09:11:11;63708.63;;;-147.61;100.00
69796;BME280;57073;45.650;9.612;2022-08-21T09:20:28;63708.63;;;-147.61;100.00
69796;BME280;57073;45.650;9.612;2022-08-21T09:22:47;63708.63;;;-147.61;100.00
69796;BME280;57073;45.650;9.612;2022-08-21T09:27:15;63708.63;;;-147.61;100.00
69796;BME280;57073;45.650;9.612;2022-08-21T09:29:17;63708.63;;;-147.61;100.00
69796;BME280;57073;45.650;9.612;2022-08-21T09:33:23;63708.63;;;-147.61;100.00
69796;BME280;57073;45.650;9.612;2022-08-21T09:35:24;63708.63;;;-147.61;100.00
69796;BME280;57073;45.650;9.612;2022-08-21T09:37:27;63708.63;;;-147.61;100.00
69796;BME280;57073;45.650;9.612;2022-08-21T09:39:32;63708.63;;;-147.61;100.00
69796;BME280;57073;45.650;9.612;2022-08-21T09:41:38;63708.63;;;-147.61;100.00
69796;BME280;57073;45.650;9.612;2022-08-21T09:43:39;63708.63;;;-147.61;100.00
69796;BME280;57073;45.650;9.612;2022-08-21T09:45:41;63708.63;;;-147.61;100.00
69796;BME280;57073;45.650;9.612;2022-08-21T09:47:42;63708.63;;;-147.61;100.00
69796;BME280;57073;45.650;9.612;2022-08-21T09:49:44;63708.63;;;-147.61;100.00
69796;BME280;57073;45.650;9.612;2022-08-21T09:51:51;63708.63;;;-147.61;100.00
69796;BME280;57073;45.650;9.612;2022-08-21T09:56:03;63708.63;;;-147.61;100.00
69796;BME280;57073;45.650;9.612;2022-08-21T09:58:31;63708.63;;;-147.61;100.00
69796;BME280;57073;45.650;9.612;2022-08-21T10:00:33;63708.63;;;-147.61;100.00
69796;BME280;57073;45.650;9.612;2022-08-21T10:02:35;63708.63;;;-147.61;100.00
69796;BME280;57073;45.650;9.612;2022-08-21T10:04:36;63708.63;;;-147.61;100.00
69796;BME280;57073;45.650;9.612;2022-08-21T10:06:37;63708.63;;;-147.61;100.00
69796;BME280;57073;45.650;9.612;2022-08-21T10:08:40;63708.63;;;-147.61;100.00
69796;BME280;57073;45.650;9.612;2022-08-21T10:10:40;63708.63;;;-147.61;100.00
69796;BME280;57073;45.650;9.612;2022-08-21T10:13:13;63708.63;;;-147.61;100.00
69796;BME280;57073;45.650;9.612;2022-08-21T10:15:28;63708.63;;;-147.61;100.00
69796;BME280;57073;45.650;9.612;2022-08-21T10:17:52;63708.63;;;-147.61;100.00
69796;BME280;57073;45.650;9.612;2022-08-21T10:20:09;63708.63;;;-147.61;100.00
69796;BME280;57073;45.650;9.612;2022-08-21T10:29:46;63708.63;;;-147.61;100.00
69796;BME280;57073;45.650;9.612;2022-08-21T10:34:33;63708.63;;;-147.61;100.00
69796;BME280;57073;45.650;9.612;2022-08-21T10:38:59;63708.63;;;-147.61;100.00
69796;BME280;57073;45.650;9.612;2022-08-21T10:41:15;63708.63;;;-147.61;100.00
69796;BME280;57073;45.650;9.612;2022-08-21T10:48:03;63708.63;;;-147.61;100.00
69796;BME280;57073;45.650;9.612;2022-08-21T10:50:31;63708.63;;;-147.61;100.00
69796;BME280;57073;45.650;9.612;2022-08-21T10:55:15;63708.63;;;-147.61;100.00
69796;BME280;57073;45.650;9.612;2022-08-21T10:59:55;63708.63;;;-147.61;100.00
69796;BME280;57073;45.650;9.612;2022-08-21T11:04:51;63708.63;;;-147.61;100.00
69796;BME280;57073;45.650;9.612;2022-08-21T11:07:00;63708.63;;;-147.61;100.00
69796;BME280;57073;45.650;9.612;2022-08-21T11:09:11;63708.63;;;-147.61;100.00
69796;BME280;57073;45.650;9.612;2022-08-21T11:11:36;63708.63;;;-147.61;100.00
69796;BME280;57073;45.650;9.612;2022-08-21T11:18:22;63708.63;;;-147.61;100.00